首页
METAR-TAF:

METAR-TAF

机场 :

基加利国际机场

吉佳利, 卢旺达

纬度: 01-58S, 经度: 030-07E, 海拔: 1491米

当前天气观测

该预报发布于33分钟前的01:00 UTC
风速2节,风向多变
温度 18°C
湿度 94%
气压 1020 hPa
能见度10公里或以上
多云层高于2500英尺
散云层高于10000英尺

METAR: HRYR 250100Z VRB02KT 9999 BKN025 SCT100 18/17 Q1020 NOSIG

时间: 03:33 (01:33 UTC)

预报

该预报发布于2小时和33分钟前的23:00 UTC
预报有效从25日的 00点(UTC)到 26日的 06点(UTC)
风速4节,风向西转西北
能见度10公里或以上
多云层高于2500英尺
多云层高于10000英尺
成为
从 25日的 02点(UTC)到 25日的 05点(UTC)
风速节,风向
多云层高于2500英尺
散云层高于10000英尺
从 点(UTC)
风速4节,风向南转南东
多云层高于2500英尺
短暂存在
从 25日的 13点(UTC)到 25日的 17点(UTC)
风速12节,风向西转西南
少量云层高于2000英尺, 积雨云.
多云层高于2500英尺
雷暴, 小雨
从 25日的 2000点(UTC)
风速4节,风向东北
散云层高于2600英尺
散云层高于10000英尺
成为
从 26日的 02点(UTC)到 26日的 05点(UTC)
风速节,风向
多云层高于2500英尺

TAF: HRYR 242300Z 2500/2606 30004KT 9999 BKN025 BKN100 BECMG 2502/2505 00000KT BKN025 SCT100 FM 250900 15004KT BKN025 TEMPO 2513/2517 24012KT -TSRA FEW020CB BKN025 FM252000 04004KT SCT026 SCT100 BECMG 2602/2605 00000KT BKN025

超过4000个机场的气象观测和天气预报(METAR&TAF报告)。

可查询的气象台以黄色和红色小点在地图上表示。

将鼠标移到小点上方,可查看气象台名称。

然后点击查看天气观测和预报。

如需切换地图:点击带黑十字的绿色按钮放大地图;点击带横线的绿色按钮缩小地图;或者点击绿色箭头查看邻近地区的地图。


METAR-TAF: